Time;durP1;ratioP1;P1;durP2;ratioP2;P2;SDS_P1;SDS_P2;PMS_P1;PMS_P2;Temp;Humidity;BMP_temperature;BMP_pressure;BME280_temperature;BME280_humidity;BME280_pressure;Samples;Min_cycle;Max_cycle;Signal;HPM_P1;HPM_P2
2023/12/30 00:00:20;;;;;;;8.50;5.63;;;8.40;67.10;;;;;;5134503;28;20027;-75
2023/12/30 00:02:50;;;;;;;7.60;5.57;;;8.40;67.10;;;;;;5115535;28;20118;-74
2023/12/30 00:05:16;;;;;;;6.78;5.13;;;8.40;67.10;;;;;;5098669;28;20023;-74
2023/12/30 00:07:44;;;;;;;8.40;5.93;;;8.40;67.10;;;;;;5130533;28;20027;-74
2023/12/30 00:10:10;;;;;;;6.75;5.38;;;8.40;67.10;;;;;;5118589;28;20024;-74
2023/12/30 00:12:35;;;;;;;6.90;5.55;;;8.40;67.10;;;;;;5114977;27;20030;-75
2023/12/30 00:15:02;;;;;;;7.22;5.40;;;8.40;67.10;;;;;;5114225;28;20387;-74
2023/12/30 00:17:28;;;;;;;8.23;5.22;;;8.40;67.00;;;;;;5130080;28;20023;-75
2023/12/30 00:19:54;;;;;;;8.10;5.68;;;8.40;67.10;;;;;;5132249;27;20034;-76
2023/12/30 00:22:20;;;;;;;7.90;5.82;;;8.40;67.10;;;;;;5089634;28;20389;-74
2023/12/30 00:24:46;;;;;;;7.65;5.15;;;8.40;67.10;;;;;;5134491;28;20038;-74
2023/12/30 00:27:11;;;;;;;6.65;5.35;;;8.40;67.10;;;;;;5130758;27;20041;-75
2023/12/30 00:29:40;;;;;;;7.65;5.70;;;8.40;67.10;;;;;;5104438;28;20119;-74
2023/12/30 00:32:07;;;;;;;7.78;5.38;;;8.40;67.10;;;;;;5123083;28;20032;-75
2023/12/30 00:34:33;;;;;;;6.82;5.38;;;8.40;67.10;;;;;;5112821;28;20035;-75
2023/12/30 00:36:59;;;;;;;7.20;5.15;;;8.40;67.60;;;;;;5115370;28;20020;-75
2023/12/30 00:39:25;;;;;;;6.75;5.55;;;8.40;67.10;;;;;;5113440;28;20031;-75
2023/12/30 00:41:51;;;;;;;7.75;5.82;;;8.40;67.00;;;;;;5124310;28;20542;-74
2023/12/30 00:44:17;;;;;;;8.82;6.15;;;8.40;67.00;;;;;;5115166;28;20123;-74
2023/12/30 00:46:42;;;;;;;8.23;5.60;;;8.40;67.00;;;;;;5105350;28;20027;-75
2023/12/30 00:49:09;;;;;;;7.78;4.95;;;8.40;67.10;;;;;;5129282;27;20030;-74
2023/12/30 00:51:36;;;;;;;8.10;5.53;;;8.40;67.00;;;;;;5113899;28;20043;-74
2023/12/30 00:54:02;;;;;;;7.30;5.18;;;8.40;67.00;;;;;;5117827;27;20512;-75
2023/12/30 00:56:28;;;;;;;6.93;5.38;;;8.40;67.00;;;;;;5119046;27;20045;-75
2023/12/30 00:58:54;;;;;;;7.55;5.40;;;8.40;67.00;;;;;;5101193;27;20031;-75
2023/12/30 01:01:19;;;;;;;8.32;5.68;;;8.40;67.00;;;;;;5133486;27;20039;-74
2023/12/30 01:03:45;;;;;;;7.88;5.70;;;8.40;66.90;;;;;;5115124;27;20075;-74
2023/12/30 01:06:11;;;;;;;7.35;5.80;;;8.40;67.00;;;;;;5118135;27;20396;-75
2023/12/30 01:08:36;;;;;;;7.95;5.90;;;8.40;67.00;;;;;;5109891;28;20047;-75
2023/12/30 01:11:03;;;;;;;7.32;5.93;;;8.40;67.00;;;;;;5119732;27;20023;-74
2023/12/30 01:13:29;;;;;;;7.72;6.03;;;8.30;66.90;;;;;;5126245;27;20020;-74
2023/12/30 01:15:55;;;;;;;8.73;5.95;;;8.30;67.00;;;;;;5124027;27;20035;-74
2023/12/30 01:18:21;;;;;;;8.07;5.93;;;8.30;66.90;;;;;;5117041;28;20084;-75
2023/12/30 01:20:47;;;;;;;8.18;5.75;;;8.30;67.00;;;;;;5127261;27;20030;-75
2023/12/30 01:23:13;;;;;;;8.23;5.82;;;8.30;67.00;;;;;;5117635;27;20031;-74
2023/12/30 01:25:41;;;;;;;7.40;5.35;;;8.30;67.00;;;;;;5098460;27;20038;-74
2023/12/30 01:28:07;;;;;;;7.45;5.30;;;8.30;67.00;;;;;;5126562;27;20056;-74
2023/12/30 01:30:36;;;;;;;7.80;5.68;;;8.30;67.00;;;;;;5134618;27;20497;-73
2023/12/30 01:33:02;;;;;;;8.43;6.32;;;8.30;67.00;;;;;;5136544;27;20038;-73
2023/12/30 01:35:28;;;;;;;7.80;5.90;;;8.30;67.00;;;;;;5136305;27;20030;-74
2023/12/30 01:37:54;;;;;;;6.78;5.38;;;8.30;67.00;;;;;;5120022;27;20107;-74
2023/12/30 01:40:20;;;;;;;8.30;6.18;;;8.30;67.00;;;;;;5136333;27;20079;-74
2023/12/30 01:42:46;;;;;;;8.77;6.00;;;8.30;67.00;;;;;;5109670;27;20374;-75
2023/12/30 01:45:12;;;;;;;8.13;6.18;;;8.30;67.00;;;;;;5125370;27;20022;-75
2023/12/30 01:47:39;;;;;;;8.05;5.97;;;8.30;67.00;;;;;;5118386;27;20039;-75
2023/12/30 01:50:05;;;;;;;8.35;5.97;;;8.30;67.00;;;;;;5122044;27;20051;-75
2023/12/30 01:52:33;;;;;;;8.18;5.80;;;8.20;66.90;;;;;;5109233;27;20110;-75
2023/12/30 01:54:59;;;;;;;7.78;5.57;;;8.20;67.00;;;;;;5109402;27;20357;-74
2023/12/30 01:57:25;;;;;;;7.85;5.93;;;8.20;67.00;;;;;;5123923;27;20034;-74
2023/12/30 01:59:51;;;;;;;7.20;5.20;;;8.20;67.10;;;;;;5121024;27;20027;-74
2023/12/30 02:02:17;;;;;;;7.57;5.63;;;8.20;67.10;;;;;;5093293;28;20079;-74
2023/12/30 02:04:43;;;;;;;9.05;5.95;;;8.20;67.10;;;;;;5094320;28;20106;-74
2023/12/30 02:07:09;;;;;;;7.50;5.90;;;8.20;67.10;;;;;;5100577;28;20036;-74
2023/12/30 02:09:36;;;;;;;8.00;5.78;;;8.20;67.10;;;;;;5100042;28;20035;-75
2023/12/30 02:12:03;;;;;;;7.13;5.15;;;8.20;67.10;;;;;;5095157;28;20067;-74
2023/12/30 02:14:30;;;;;;;7.15;5.75;;;8.20;67.10;;;;;;5108808;28;20038;-75
2023/12/30 02:16:58;;;;;;;8.00;5.78;;;8.20;67.10;;;;;;5098834;28;20036;-75
2023/12/30 02:19:25;;;;;;;7.72;6.00;;;8.20;67.10;;;;;;5109762;28;20547;-73
2023/12/30 02:21:52;;;;;;;7.85;5.50;;;8.20;67.10;;;;;;5094248;28;20032;-74
2023/12/30 02:24:20;;;;;;;6.95;5.25;;;8.20;67.10;;;;;;5104724;28;20032;-75
2023/12/30 02:26:46;;;;;;;6.88;5.47;;;8.20;67.10;;;;;;5099470;28;20036;-74
2023/12/30 02:29:11;;;;;;;7.47;5.88;;;8.20;67.10;;;;;;5110396;28;20027;-74
2023/12/30 02:31:45;;;;;;;8.20;5.97;;;8.10;67.10;;;;;;5104248;28;20042;-75
2023/12/30 02:34:20;;;;;;;6.27;5.13;;;8.10;67.10;;;;;;5114141;28;20024;-73
2023/12/30 02:36:47;;;;;;;8.63;5.85;;;8.10;67.10;;;;;;5099491;28;20268;-75
2023/12/30 02:39:13;;;;;;;7.55;5.65;;;8.10;67.10;;;;;;5096175;28;20094;-74
2023/12/30 02:41:39;;;;;;;7.32;5.50;;;8.10;67.10;;;;;;5108267;28;20024;-74
2023/12/30 02:44:05;;;;;;;7.38;5.70;;;8.10;67.10;;;;;;5104779;28;20027;-74
2023/12/30 02:46:31;;;;;;;7.10;5.55;;;8.10;67.20;;;;;;5104506;28;20035;-75
2023/12/30 02:48:57;;;;;;;8.23;5.38;;;8.10;67.10;;;;;;5112509;28;20525;-74
2023/12/30 02:51:24;;;;;;;7.72;5.40;;;8.10;67.20;;;;;;5108956;28;20108;-75
2023/12/30 02:53:49;;;;;;;6.80;5.03;;;8.10;67.20;;;;;;5114629;28;20019;-74
2023/12/30 02:56:20;;;;;;;6.78;5.07;;;8.10;67.20;;;;;;5110389;28;20102;-74
2023/12/30 02:58:56;;;;;;;7.22;5.60;;;8.10;67.20;;;;;;5110448;28;20097;-74
2023/12/30 03:01:23;;;;;;;7.38;5.68;;;8.10;67.10;;;;;;5116277;27;20101;-75
2023/12/30 03:03:52;;;;;;;7.30;5.60;;;8.10;67.10;;;;;;5101052;28;20031;-74
2023/12/30 03:06:18;;;;;;;6.88;5.32;;;8.10;67.10;;;;;;5097474;27;20076;-74
2023/12/30 03:08:44;;;;;;;7.72;5.43;;;8.10;67.10;;;;;;5120124;27;20027;-75
2023/12/30 03:11:09;;;;;;;7.28;5.53;;;8.10;67.10;;;;;;5132748;27;20393;-74
2023/12/30 03:13:35;;;;;;;6.65;5.40;;;8.10;67.10;;;;;;5114205;28;20030;-73
2023/12/30 03:16:02;;;;;;;5.90;4.68;;;8.10;67.10;;;;;;5114557;27;20034;-73
2023/12/30 03:18:28;;;;;;;7.43;5.20;;;8.10;67.10;;;;;;5114411;28;20469;-74
2023/12/30 03:20:53;;;;;;;6.88;5.07;;;8.10;67.10;;;;;;5097655;28;20055;-74
2023/12/30 03:23:19;;;;;;;7.00;5.28;;;8.10;67.10;;;;;;5128378;27;20024;-74
2023/12/30 03:25:45;;;;;;;6.80;5.20;;;8.10;67.00;;;;;;5096417;28;20038;-74
2023/12/30 03:28:11;;;;;;;7.10;5.50;;;8.10;67.00;;;;;;5134142;27;20027;-74
2023/12/30 03:30:37;;;;;;;7.10;5.30;;;8.10;67.00;;;;;;5133150;27;20035;-75
2023/12/30 03:33:03;;;;;;;6.82;5.10;;;8.10;67.10;;;;;;5127962;27;20023;-74
2023/12/30 03:35:29;;;;;;;8.00;5.75;;;8.10;67.10;;;;;;5113685;28;20043;-75
2023/12/30 03:37:55;;;;;;;8.15;5.80;;;8.10;67.10;;;;;;5120627;27;20019;-75
2023/12/30 03:40:20;;;;;;;6.88;5.53;;;8.10;67.10;;;;;;5111206;28;20103;-74
2023/12/30 03:42:46;;;;;;;7.43;5.32;;;8.10;67.00;;;;;;5119989;27;20457;-73
2023/12/30 03:45:12;;;;;;;7.03;5.38;;;8.10;67.10;;;;;;5130604;27;20032;-74
2023/12/30 03:47:37;;;;;;;7.57;5.75;;;8.10;67.00;;;;;;5118056;27;20046;-74
2023/12/30 03:50:04;;;;;;;7.03;5.45;;;8.10;67.10;;;;;;5114484;28;20027;-75
2023/12/30 03:52:30;;;;;;;7.60;5.65;;;8.10;67.10;;;;;;5106609;28;20023;-76
2023/12/30 03:54:56;;;;;;;7.55;5.38;;;8.10;67.10;;;;;;5103347;28;20088;-75
2023/12/30 03:57:22;;;;;;;8.65;5.32;;;8.00;67.10;;;;;;5113460;28;20484;-74
2023/12/30 03:59:48;;;;;;;7.22;5.63;;;8.00;67.10;;;;;;5114995;28;20065;-75
2023/12/30 04:02:17;;;;;;;6.45;5.05;;;8.00;67.10;;;;;;5100823;28;20048;-74
2023/12/30 04:04:43;;;;;;;6.68;5.07;;;8.00;67.10;;;;;;5128171;27;20019;-74
2023/12/30 04:07:09;;;;;;;8.65;5.97;;;8.00;67.10;;;;;;5134114;27;20376;-74
2023/12/30 04:09:35;;;;;;;8.25;5.90;;;8.00;67.10;;;;;;5099274;28;20077;-74
2023/12/30 04:12:01;;;;;;;7.45;5.85;;;8.00;67.10;;;;;;5102907;28;20453;-74
2023/12/30 04:14:26;;;;;;;7.45;6.00;;;8.00;67.10;;;;;;5103683;28;20027;-75
2023/12/30 04:16:52;;;;;;;8.07;5.72;;;8.00;67.10;;;;;;5103777;28;20031;-74
2023/12/30 04:19:18;;;;;;;7.15;5.85;;;8.00;67.10;;;;;;5132673;28;20034;-76
2023/12/30 04:21:44;;;;;;;8.00;5.68;;;8.00;67.10;;;;;;5111214;28;20541;-74
2023/12/30 04:24:09;;;;;;;8.18;5.68;;;8.00;67.10;;;;;;5115171;28;20047;-75
2023/12/30 04:26:35;;;;;;;8.15;5.85;;;8.00;67.10;;;;;;5134308;27;20117;-74
2023/12/30 04:29:01;;;;;;;7.97;5.53;;;8.00;67.10;;;;;;5113931;27;20047;-74
2023/12/30 04:31:27;;;;;;;7.18;5.68;;;8.00;67.10;;;;;;5102085;27;20035;-74
2023/12/30 04:33:52;;;;;;;7.60;5.50;;;8.00;67.20;;;;;;5126678;27;20020;-74
2023/12/30 04:36:18;;;;;;;8.48;5.88;;;7.90;67.10;;;;;;5119695;27;20034;-73
2023/12/30 04:38:44;;;;;;;7.78;5.55;;;7.90;67.10;;;;;;5138095;27;20029;-74
2023/12/30 04:41:09;;;;;;;8.23;6.30;;;8.00;67.20;;;;;;5116780;27;20483;-75
2023/12/30 04:43:35;;;;;;;8.13;5.97;;;7.90;67.10;;;;;;5126762;27;20024;-74
2023/12/30 04:46:02;;;;;;;7.28;5.93;;;7.90;67.20;;;;;;5111734;28;20040;-74
2023/12/30 04:48:28;;;;;;;7.80;5.85;;;7.90;67.20;;;;;;5109382;27;20038;-74
2023/12/30 04:50:53;;;;;;;8.50;6.07;;;7.90;67.30;;;;;;5106577;28;20027;-74
2023/12/30 04:53:19;;;;;;;7.55;5.88;;;7.90;67.30;;;;;;5116460;27;20079;-74
2023/12/30 04:55:45;;;;;;;8.48;5.75;;;7.90;67.40;;;;;;5101601;27;20469;-74
2023/12/30 04:58:11;;;;;;;8.75;6.85;;;7.80;67.40;;;;;;5106158;28;20115;-75
2023/12/30 05:00:38;;;;;;;9.02;6.47;;;7.90;67.50;;;;;;5137983;27;20055;-73
2023/12/30 05:03:03;;;;;;;7.53;5.75;;;7.80;67.40;;;;;;5125818;27;20156;-74
2023/12/30 05:05:29;;;;;;;7.30;5.90;;;7.90;67.50;;;;;;5113804;28;20111;-75
2023/12/30 05:07:55;;;;;;;7.57;5.90;;;7.90;67.50;;;;;;5128783;27;20027;-73
2023/12/30 05:10:21;;;;;;;7.68;5.57;;;7.90;67.50;;;;;;5137318;27;20027;-74
2023/12/30 05:12:46;;;;;;;6.45;5.10;;;7.90;67.60;;;;;;5122690;27;20028;-74
2023/12/30 05:15:15;;;;;;;7.38;5.30;;;7.90;67.50;;;;;;5127867;27;20028;-76
2023/12/30 05:17:41;;;;;;;6.90;5.07;;;7.90;67.50;;;;;;5125322;27;20076;-74
2023/12/30 05:20:08;;;;;;;7.18;5.68;;;7.90;67.40;;;;;;5135466;27;20035;-74
2023/12/30 05:22:35;;;;;;;8.98;6.00;;;7.90;67.30;;;;;;5131861;27;20028;-74
2023/12/30 05:25:00;;;;;;;7.93;5.70;;;7.90;67.20;;;;;;5122595;27;20066;-74
2023/12/30 05:27:26;;;;;;;7.13;5.30;;;8.00;67.30;;;;;;5117870;27;20054;-76
2023/12/30 05:29:52;;;;;;;7.55;5.32;;;8.00;67.20;;;;;;5117170;27;20526;-74
2023/12/30 05:32:18;;;;;;;7.30;5.35;;;8.00;67.10;;;;;;5132452;27;20026;-73
2023/12/30 05:34:44;;;;;;;8.05;5.70;;;8.00;67.10;;;;;;5109836;27;20026;-74
2023/12/30 05:37:10;;;;;;;7.57;5.55;;;8.10;67.10;;;;;;5115066;27;20385;-75
2023/12/30 05:39:36;;;;;;;8.38;6.05;;;8.10;67.10;;;;;;5118690;27;20035;-75
2023/12/30 05:42:02;;;;;;;7.45;5.55;;;8.10;67.00;;;;;;5131656;27;20514;-74
2023/12/30 05:44:28;;;;;;;7.85;6.38;;;8.10;66.90;;;;;;5136848;27;20114;-74
2023/12/30 05:46:54;;;;;;;9.52;6.82;;;8.10;66.80;;;;;;5126506;27;20173;-74
2023/12/30 05:49:20;;;;;;;8.82;6.47;;;8.10;66.80;;;;;;5135440;27;20034;-74
2023/12/30 05:51:45;;;;;;;8.20;6.28;;;8.10;66.80;;;;;;5118934;27;20427;-74
2023/12/30 05:54:11;;;;;;;8.43;5.75;;;8.10;66.80;;;;;;5104200;27;20028;-75
2023/12/30 05:56:37;;;;;;;7.65;5.82;;;8.10;67.30;;;;;;5117097;27;20034;-73
2023/12/30 05:59:03;;;;;;;8.55;6.10;;;8.10;66.80;;;;;;5125947;27;20084;-75
2023/12/30 06:01:28;;;;;;;9.75;6.97;;;8.10;66.80;;;;;;5126373;27;20086;-76
2023/12/30 06:03:54;;;;;;;9.30;6.70;;;8.10;66.80;;;;;;5133192;27;20023;-74
2023/12/30 06:06:20;;;;;;;8.82;6.30;;;8.10;66.70;;;;;;5132949;27;20518;-75
2023/12/30 06:08:46;;;;;;;9.00;6.70;;;8.10;66.70;;;;;;5103025;28;20142;-74
2023/12/30 06:11:13;;;;;;;8.70;6.57;;;8.10;66.70;;;;;;5108320;27;20023;-75
2023/12/30 06:13:40;;;;;;;7.93;6.15;;;8.00;66.70;;;;;;5108585;28;20030;-74
2023/12/30 06:16:08;;;;;;;7.53;5.90;;;8.10;66.70;;;;;;5125553;27;20038;-75
2023/12/30 06:18:34;;;;;;;7.25;5.78;;;8.10;66.70;;;;;;5122915;27;20026;-75
2023/12/30 06:21:00;;;;;;;8.90;5.78;;;8.00;66.70;;;;;;5116624;27;20032;-75
2023/12/30 06:23:30;;;;;;;9.35;6.07;;;8.10;66.70;;;;;;5117969;27;20119;-75
2023/12/30 06:25:56;;;;;;;8.23;6.05;;;8.10;66.70;;;;;;5107370;28;20036;-74
2023/12/30 06:28:26;;;;;;;8.50;5.72;;;8.00;66.60;;;;;;5113241;27;20075;-75
2023/12/30 06:30:52;;;;;;;7.20;5.50;;;8.10;66.70;;;;;;5135894;27;20104;-75
2023/12/30 06:33:20;;;;;;;8.20;5.88;;;8.10;66.70;;;;;;5114072;27;20076;-76
2023/12/30 06:35:45;;;;;;;8.98;6.05;;;8.10;66.70;;;;;;5115970;27;20024;-75
2023/12/30 06:38:11;;;;;;;9.20;5.80;;;8.10;66.60;;;;;;5118338;27;20027;-76
2023/12/30 06:40:37;;;;;;;6.90;5.60;;;8.10;66.60;;;;;;5136034;27;20429;-75
2023/12/30 06:43:03;;;;;;;7.35;5.63;;;8.10;66.60;;;;;;5099074;27;20039;-73
2023/12/30 06:45:29;;;;;;;8.57;6.25;;;8.10;66.60;;;;;;5113460;28;20423;-74
2023/12/30 06:47:54;;;;;;;8.38;6.22;;;8.10;66.60;;;;;;5114834;27;20103;-74
2023/12/30 06:50:22;;;;;;;7.78;5.70;;;8.10;66.50;;;;;;5115224;27;20454;-74
2023/12/30 06:52:48;;;;;;;9.02;6.35;;;8.10;66.50;;;;;;5125192;27;20102;-76
2023/12/30 06:55:14;;;;;;;8.13;5.72;;;8.10;66.50;;;;;;5116607;27;20050;-76
2023/12/30 06:57:41;;;;;;;7.30;6.00;;;8.10;66.50;;;;;;5114081;27;20023;-74
2023/12/30 07:00:08;;;;;;;8.88;6.50;;;8.10;66.50;;;;;;5135300;27;20431;-75
2023/12/30 07:02:34;;;;;;;7.78;5.90;;;8.10;66.50;;;;;;5116176;27;20043;-74
2023/12/30 07:05:00;;;;;;;8.23;5.78;;;8.10;66.50;;;;;;5120219;27;20019;-75
2023/12/30 07:07:26;;;;;;;8.10;6.45;;;8.10;66.50;;;;;;5116894;27;20392;-74
2023/12/30 07:09:52;;;;;;;8.73;6.45;;;8.20;66.50;;;;;;5132789;27;20035;-75
2023/12/30 07:12:17;;;;;;;8.57;6.60;;;8.20;66.50;;;;;;5114624;27;20388;-74
2023/12/30 07:14:43;;;;;;;8.20;6.10;;;8.20;66.50;;;;;;5134475;27;20027;-74
2023/12/30 07:17:09;;;;;;;9.15;6.72;;;8.20;66.50;;;;;;5112047;28;20128;-75
2023/12/30 07:19:35;;;;;;;8.20;6.25;;;8.20;66.50;;;;;;5095973;28;20026;-74
2023/12/30 07:22:01;;;;;;;10.52;6.45;;;8.20;66.50;;;;;;5112813;27;20019;-76
2023/12/30 07:24:26;;;;;;;8.40;6.00;;;8.20;66.40;;;;;;5128809;27;20035;-74
2023/12/30 07:26:52;;;;;;;8.02;6.13;;;8.20;66.40;;;;;;5133126;27;20035;-75
2023/12/30 07:29:18;;;;;;;8.57;5.85;;;8.20;66.30;;;;;;5134864;27;20092;-76
2023/12/30 07:31:44;;;;;;;8.35;6.63;;;8.30;66.40;;;;;;5112527;27;20030;-84
2023/12/30 07:34:10;;;;;;;8.23;6.68;;;8.30;66.30;;;;;;5134977;27;20027;-81
2023/12/30 07:36:36;;;;;;;8.40;6.65;;;8.30;66.90;;;;;;5135007;27;20452;-79
2023/12/30 07:39:03;;;;;;;7.78;5.80;;;8.30;66.30;;;;;;5126905;27;20047;-79
2023/12/30 07:41:28;;;;;;;7.47;5.97;;;8.30;66.30;;;;;;5129175;27;20102;-79
2023/12/30 07:43:54;;;;;;;8.73;6.55;;;8.30;66.20;;;;;;5130410;27;20437;-77
2023/12/30 07:46:21;;;;;;;7.72;5.95;;;8.30;66.20;;;;;;5103723;28;20039;-85
2023/12/30 07:48:46;;;;;;;8.00;6.15;;;8.40;66.30;;;;;;5132555;27;20370;-82
2023/12/30 07:51:12;;;;;;;8.50;6.70;;;8.40;66.20;;;;;;5116144;28;20076;-79
2023/12/30 07:53:38;;;;;;;8.45;6.30;;;8.40;66.10;;;;;;5120459;28;20473;-77
2023/12/30 07:56:04;;;;;;;9.52;7.07;;;8.40;66.10;;;;;;5096041;28;20165;-75
2023/12/30 07:58:30;;;;;;;9.02;6.57;;;8.40;66.10;;;;;;5122734;27;20047;-81
2023/12/30 08:00:55;;;;;;;7.65;5.88;;;8.40;66.10;;;;;;5124188;27;20051;-78
2023/12/30 08:03:24;;;;;;;8.23;6.22;;;8.40;66.20;;;;;;5109145;27;20150;-79
2023/12/30 08:05:51;;;;;;;8.05;6.28;;;8.50;66.20;;;;;;5105637;27;20031;-78
2023/12/30 08:08:16;;;;;;;9.05;6.38;;;8.50;66.20;;;;;;5132098;27;20051;-78
2023/12/30 08:10:43;;;;;;;7.85;6.32;;;8.50;66.10;;;;;;5118430;27;20059;-81
2023/12/30 08:13:09;;;;;;;8.52;6.50;;;8.50;66.20;;;;;;5123071;27;20031;-81
2023/12/30 08:15:34;;;;;;;7.82;5.72;;;8.50;66.10;;;;;;5137859;27;20050;-82
2023/12/30 08:18:00;;;;;;;8.00;6.25;;;8.60;66.20;;;;;;5105189;27;20054;-82
2023/12/30 08:20:26;;;;;;;7.72;5.65;;;8.60;66.10;;;;;;5120706;27;20036;-81
2023/12/30 08:22:52;;;;;;;6.88;5.50;;;8.60;66.10;;;;;;5119897;27;20031;-81
2023/12/30 08:25:17;;;;;;;8.23;6.45;;;8.60;66.00;;;;;;5120301;27;20119;-82
2023/12/30 08:27:43;;;;;;;7.75;5.82;;;8.60;66.60;;;;;;5119992;27;20054;-82
2023/12/30 08:30:09;;;;;;;8.82;6.35;;;8.70;66.00;;;;;;5138643;27;20030;-82
2023/12/30 08:32:35;;;;;;;8.07;6.30;;;8.70;66.00;;;;;;5138149;27;20031;-81
2023/12/30 08:35:02;;;;;;;8.43;5.90;;;8.80;66.00;;;;;;5138741;27;20037;-81
2023/12/30 08:37:29;;;;;;;7.20;5.93;;;8.80;65.90;;;;;;5120383;27;20075;-81
2023/12/30 08:40:06;;;;;;;8.25;5.93;;;8.80;65.90;;;;;;5138861;27;20492;-83
2023/12/30 08:42:34;;;;;;;8.52;6.32;;;8.80;65.90;;;;;;5139693;27;20023;-83
2023/12/30 08:45:01;;;;;;;8.05;6.22;;;8.80;65.90;;;;;;5120761;27;20051;-82
2023/12/30 08:47:32;;;;;;;9.77;6.70;;;8.80;65.90;;;;;;5120970;27;20082;-82
2023/12/30 08:49:58;;;;;;;8.82;6.10;;;8.80;65.90;;;;;;5120434;27;20081;-83
2023/12/30 08:52:24;;;;;;;7.90;6.53;;;8.90;65.90;;;;;;5119749;27;20058;-81
2023/12/30 08:54:49;;;;;;;8.68;6.68;;;8.90;65.90;;;;;;5138053;27;20015;-83
2023/12/30 08:57:17;;;;;;;8.20;5.60;;;8.90;65.90;;;;;;5138488;27;20020;-83
2023/12/30 08:59:43;;;;;;;8.05;5.90;;;8.90;65.90;;;;;;5137724;27;20035;-81
2023/12/30 09:02:09;;;;;;;8.40;6.50;;;8.90;65.90;;;;;;5116232;28;20044;-82
2023/12/30 09:04:34;;;;;;;7.88;6.20;;;9.00;65.90;;;;;;5117394;28;20420;-84
2023/12/30 09:07:00;;;;;;;8.32;6.45;;;8.90;65.80;;;;;;5117014;28;20554;-82
2023/12/30 09:09:26;;;;;;;7.72;6.03;;;8.90;65.80;;;;;;5116403;28;20442;-80
2023/12/30 09:11:52;;;;;;;8.45;6.07;;;9.00;65.90;;;;;;5115236;28;20028;-82
2023/12/30 09:14:18;;;;;;;8.73;6.07;;;8.90;65.80;;;;;;5115963;28;20030;-81
2023/12/30 09:16:43;;;;;;;7.95;6.50;;;9.00;65.90;;;;;;5115798;28;20182;-85
2023/12/30 09:19:09;;;;;;;8.20;6.00;;;9.00;65.90;;;;;;5117095;27;20030;-82
2023/12/30 09:21:35;;;;;;;8.75;5.97;;;9.00;65.90;;;;;;5115754;28;20020;-82
2023/12/30 09:24:01;;;;;;;7.45;5.75;;;9.00;65.90;;;;;;5117864;28;20052;-83
2023/12/30 09:26:27;;;;;;;7.00;5.72;;;9.00;65.90;;;;;;5116718;28;20365;-82
2023/12/30 09:28:52;;;;;;;8.40;6.43;;;9.10;65.80;;;;;;5116993;28;20419;-82
2023/12/30 09:31:24;;;;;;;7.82;6.25;;;9.10;65.80;;;;;;5116642;28;20020;-82
2023/12/30 09:33:50;;;;;;;9.40;6.50;;;9.10;65.80;;;;;;5117071;28;20362;-84
2023/12/30 09:36:17;;;;;;;6.97;5.65;;;9.20;65.80;;;;;;5115617;28;20042;-82
2023/12/30 09:38:44;;;;;;;9.23;6.60;;;9.20;65.80;;;;;;5115534;28;20111;-82
2023/12/30 09:41:09;;;;;;;8.45;6.40;;;9.30;65.80;;;;;;5115092;28;20458;-83
2023/12/30 09:43:36;;;;;;;7.13;5.82;;;9.30;65.70;;;;;;5117376;28;20114;-85
2023/12/30 09:46:03;;;;;;;8.02;6.15;;;9.40;65.70;;;;;;5117134;28;20035;-84
2023/12/30 09:48:30;;;;;;;7.72;6.00;;;9.40;65.70;;;;;;5116785;28;20024;-84
2023/12/30 09:50:59;;;;;;;7.20;5.88;;;9.50;65.60;;;;;;5118630;28;20361;-85
2023/12/30 09:53:43;;;;;;;7.32;5.75;;;9.60;65.60;;;;;;5117246;28;20016;-87
2023/12/30 09:56:11;;;;;;;7.13;5.85;;;9.60;65.50;;;;;;5117864;28;20496;-84
2023/12/30 09:58:39;;;;;;;8.63;5.82;;;9.70;65.50;;;;;;5117209;28;20034;-84
2023/12/30 10:01:05;;;;;;;8.02;6.10;;;9.70;65.40;;;;;;5125433;27;20492;-82
2023/12/30 10:03:31;;;;;;;7.97;6.05;;;9.80;65.40;;;;;;5141686;27;20019;-84
2023/12/30 10:06:03;;;;;;;7.28;5.35;;;9.80;65.40;;;;;;5120997;27;20429;-86
2023/12/30 10:08:30;;;;;;;7.75;5.65;;;9.80;65.30;;;;;;5139560;27;20388;-85
2023/12/30 10:10:57;;;;;;;6.47;5.28;;;9.90;65.30;;;;;;5121066;27;20114;-85
2023/12/30 10:13:26;;;;;;;6.13;5.15;;;9.90;65.30;;;;;;5121573;27;20512;-85
2023/12/30 10:15:55;;;;;;;7.38;5.97;;;10.00;65.30;;;;;;5120924;27;20015;-84
2023/12/30 10:18:21;;;;;;;6.85;5.30;;;10.00;65.30;;;;;;5123922;27;20114;-84
2023/12/30 10:20:47;;;;;;;7.68;5.70;;;10.00;65.20;;;;;;5122074;27;20058;-84
2023/12/30 10:23:14;;;;;;;7.35;5.88;;;10.00;65.20;;;;;;5122019;27;20023;-84
2023/12/30 10:25:41;;;;;;;6.80;5.13;;;10.10;65.20;;;;;;5123154;27;20030;-85
2023/12/30 10:28:06;;;;;;;7.30;5.68;;;10.10;65.20;;;;;;5140166;27;20019;-83
2023/12/30 10:30:32;;;;;;;7.22;5.10;;;10.10;65.20;;;;;;5122526;27;20427;-83
2023/12/30 10:33:24;;;;;;;7.20;5.32;;;10.10;65.30;;;;;;5139744;27;20031;-85
2023/12/30 10:35:50;;;;;;;7.25;5.35;;;10.10;65.30;;;;;;5134920;27;20039;-84
2023/12/30 10:38:20;;;;;;;6.55;5.20;;;10.20;65.30;;;;;;5121524;27;20027;-85
2023/12/30 10:40:45;;;;;;;6.75;5.07;;;10.20;65.30;;;;;;5139487;27;20046;-82
2023/12/30 10:43:32;;;;;;;5.43;4.63;;;10.20;65.30;;;;;;5139128;27;20035;-87
2023/12/30 10:45:59;;;;;;;7.50;5.05;;;10.20;65.30;;;;;;5120262;27;20472;-85
2023/12/30 10:48:31;;;;;;;6.30;5.22;;;10.30;65.30;;;;;;5103886;27;20031;-84
2023/12/30 10:51:01;;;;;;;7.40;5.43;;;10.30;65.30;;;;;;5140713;27;20019;-82
2023/12/30 10:53:34;;;;;;;5.85;4.63;;;10.30;65.30;;;;;;5118996;27;20110;-77
2023/12/30 10:56:01;;;;;;;7.72;5.03;;;10.30;65.30;;;;;;5117177;27;20023;-82
2023/12/30 10:58:32;;;;;;;7.82;5.55;;;10.40;65.30;;;;;;5117056;27;20472;-80
2023/12/30 11:01:00;;;;;;;7.10;5.07;;;10.40;65.30;;;;;;5117344;27;20054;-81
2023/12/30 11:03:29;;;;;;;6.22;4.88;;;10.40;65.30;;;;;;5136037;27;20035;-81
2023/12/30 11:06:17;;;;;;;6.28;5.13;;;10.50;65.30;;;;;;5117396;27;20083;-81
2023/12/30 11:08:44;;;;;;;6.68;4.80;;;10.50;65.30;;;;;;5135627;27;20076;-81
2023/12/30 11:11:19;;;;;;;7.30;5.30;;;10.50;65.30;;;;;;5136191;27;20027;-83
2023/12/30 11:13:46;;;;;;;6.22;4.90;;;10.50;65.20;;;;;;5117474;27;20035;-81
2023/12/30 11:16:16;;;;;;;5.75;4.70;;;10.60;65.20;;;;;;5135452;27;20035;-79
2023/12/30 11:19:04;;;;;;;6.03;4.95;;;10.60;65.20;;;;;;5114207;27;20488;-81
2023/12/30 11:21:32;;;;;;;6.03;5.07;;;10.60;65.20;;;;;;5113778;28;20046;-79
2023/12/30 11:24:03;;;;;;;5.25;4.38;;;10.60;65.20;;;;;;5096400;28;20529;-76
2023/12/30 11:26:30;;;;;;;6.38;4.60;;;10.60;65.20;;;;;;5114301;28;20080;-79
2023/12/30 11:29:00;;;;;;;6.13;4.35;;;10.60;65.20;;;;;;5114124;28;20051;-80
2023/12/30 11:31:37;;;;;;;6.15;4.80;;;10.60;65.20;;;;;;5114077;28;20036;-79
2023/12/30 11:34:14;;;;;;;6.72;5.28;;;10.60;65.30;;;;;;5111722;28;20019;-82
2023/12/30 11:36:41;;;;;;;6.07;4.45;;;10.60;65.20;;;;;;5112959;28;20115;-79
2023/12/30 11:39:08;;;;;;;5.72;4.60;;;10.60;65.20;;;;;;5112911;28;20028;-77
2023/12/30 11:41:35;;;;;;;5.95;4.50;;;10.60;65.30;;;;;;5095135;28;20078;-78
2023/12/30 11:44:03;;;;;;;5.82;4.43;;;10.60;65.30;;;;;;5094568;28;20088;-76
2023/12/30 11:46:29;;;;;;;5.32;4.43;;;10.60;65.30;;;;;;5095012;28;20042;-82
2023/12/30 11:48:59;;;;;;;5.85;4.88;;;10.70;65.40;;;;;;5096106;28;20023;-77
2023/12/30 11:51:30;;;;;;;5.50;4.53;;;10.70;65.40;;;;;;5094900;28;20031;-76
2023/12/30 11:53:56;;;;;;;5.72;4.43;;;10.70;65.40;;;;;;5113310;28;20466;-78
2023/12/30 11:56:23;;;;;;;5.20;4.15;;;10.70;65.40;;;;;;5094738;28;20106;-79
2023/12/30 11:58:50;;;;;;;6.78;4.47;;;10.70;65.40;;;;;;5094952;28;20036;-78
2023/12/30 12:01:18;;;;;;;5.65;4.85;;;10.70;65.40;;;;;;5094827;28;20434;-80
2023/12/30 12:03:44;;;;;;;6.25;4.80;;;10.70;65.40;;;;;;5094877;28;20038;-78
2023/12/30 12:06:11;;;;;;;5.55;4.50;;;10.70;65.40;;;;;;5094866;28;20408;-79
2023/12/30 12:08:37;;;;;;;5.75;4.57;;;10.80;65.50;;;;;;5094944;28;20031;-78
2023/12/30 12:11:03;;;;;;;5.85;4.72;;;10.80;65.50;;;;;;5094716;28;20393;-79
2023/12/30 12:13:29;;;;;;;6.55;5.00;;;10.70;65.50;;;;;;5094710;28;20024;-79
2023/12/30 12:15:56;;;;;;;6.95;5.20;;;10.80;65.50;;;;;;5113183;28;20028;-78
2023/12/30 12:18:23;;;;;;;6.95;4.65;;;10.80;65.50;;;;;;5113098;28;20028;-78
2023/12/30 12:20:53;;;;;;;5.55;4.35;;;10.80;65.50;;;;;;5094687;28;20035;-78
2023/12/30 12:23:23;;;;;;;5.68;4.30;;;10.80;65.50;;;;;;5094645;28;20023;-80
2023/12/30 12:25:48;;;;;;;5.53;4.55;;;10.80;65.50;;;;;;5112575;28;20110;-79
2023/12/30 12:28:23;;;;;;;5.50;4.43;;;10.80;65.50;;;;;;5094968;28;20115;-78
2023/12/30 12:30:49;;;;;;;;;;;10.80;65.50;;;;;;5094995;28;20034;-78
2023/12/30 12:33:17;;;;;;;5.22;4.43;;;10.80;65.60;;;;;;5094513;28;19911;-79
2023/12/30 12:35:44;;;;;;;4.88;3.95;;;10.80;65.50;;;;;;5094357;28;20080;-79
2023/12/30 12:38:10;;;;;;;5.60;4.35;;;10.80;65.50;;;;;;5094400;28;20092;-79
2023/12/30 12:40:38;;;;;;;5.50;4.13;;;10.80;65.50;;;;;;5112646;28;20373;-78
2023/12/30 12:43:04;;;;;;;6.07;4.47;;;10.80;65.50;;;;;;5112710;28;20435;-78
2023/12/30 12:45:29;;;;;;;5.20;4.25;;;10.80;65.50;;;;;;5113426;28;20098;-79
2023/12/30 12:47:55;;;;;;;5.50;4.30;;;10.80;65.60;;;;;;5116247;28;20031;-79
2023/12/30 12:50:21;;;;;;;5.63;4.32;;;10.70;65.60;;;;;;5116283;28;20028;-78
2023/12/30 12:52:47;;;;;;;5.35;4.38;;;10.80;65.70;;;;;;5116247;28;20039;-78